Time;durP1;ratioP1;P1;durP2;ratioP2;P2;SDS_P1;SDS_P2;PMS_P1;PMS_P2;Temp;Humidity;BMP_temperature;BMP_pressure;BME280_temperature;BME280_humidity;BME280_pressure;Samples;Min_cycle;Max_cycle;Signal;HPM_P1;HPM_P2
2021/03/22 00:01:48;;;;;;;13.07;8.53;;;2.90;89.30;;;;;;5090385;28;20295;-84
2021/03/22 00:04:15;;;;;;;9.23;7.63;;;2.80;88.60;;;;;;5087839;28;20220;-84
2021/03/22 00:06:41;;;;;;;10.30;8.23;;;2.80;89.40;;;;;;5086707;28;20675;-86
2021/03/22 00:09:08;;;;;;;13.13;8.40;;;2.70;89.20;;;;;;5094906;28;20303;-84
2021/03/22 00:11:34;;;;;;;12.17;8.57;;;2.80;89.10;;;;;;5084609;28;20220;-86
2021/03/22 00:14:01;;;;;;;11.40;8.40;;;2.80;89.40;;;;;;5085145;28;20231;-86
2021/03/22 00:16:28;;;;;;;11.80;8.30;;;2.80;89.10;;;;;;5088694;28;20266;-86
2021/03/22 00:18:54;;;;;;;11.70;8.40;;;2.80;89.60;;;;;;5084638;28;20224;-84
2021/03/22 00:21:21;;;;;;;15.10;8.93;;;2.70;90.10;;;;;;5091668;28;20218;-84
2021/03/22 00:23:48;;;;;;;13.23;8.70;;;2.80;89.80;;;;;;5086984;28;20270;-84
2021/03/22 00:26:14;;;;;;;12.23;8.63;;;2.80;90.10;;;;;;5085962;28;20204;-85
2021/03/22 00:28:40;;;;;;;11.83;8.47;;;2.80;90.00;;;;;;5086585;28;20235;-84
2021/03/22 00:31:10;;;;;;;11.93;8.07;;;2.80;89.50;;;;;;5089877;28;20220;-85
2021/03/22 00:33:36;;;;;;;11.47;8.50;;;2.80;90.00;;;;;;5087299;28;20301;-85
2021/03/22 00:36:03;;;;;;;14.17;9.23;;;2.70;90.00;;;;;;5091296;28;20200;-86
2021/03/22 00:38:29;;;;;;;17.67;8.67;;;2.70;90.00;;;;;;5093126;28;20232;-82
2021/03/22 00:40:56;;;;;;;10.90;8.80;;;2.70;90.30;;;;;;5087959;28;20204;-83
2021/03/22 00:43:23;;;;;;;12.53;8.73;;;2.60;90.30;;;;;;5086633;28;20250;-88
2021/03/22 00:45:50;;;;;;;11.57;8.23;;;2.60;90.50;;;;;;5089736;28;20542;-83
2021/03/22 00:48:17;;;;;;;17.93;9.03;;;2.60;90.80;;;;;;5087467;28;20207;-82
2021/03/22 00:50:44;;;;;;;12.83;8.50;;;2.60;90.80;;;;;;5094934;28;20224;-84
2021/03/22 00:53:12;;;;;;;11.33;8.60;;;2.70;90.50;;;;;;5094674;28;20227;-84
2021/03/22 00:55:39;;;;;;;12.10;8.43;;;2.60;90.30;;;;;;5083520;28;20200;-84
2021/03/22 00:58:06;;;;;;;10.80;8.23;;;2.60;90.60;;;;;;5097062;28;20204;-82
2021/03/22 01:00:35;;;;;;;13.07;9.20;;;2.70;90.50;;;;;;5089612;28;20602;-83
2021/03/22 01:03:02;;;;;;;12.23;8.30;;;2.70;90.30;;;;;;5088764;28;20296;-84
2021/03/22 01:05:29;;;;;;;13.37;8.47;;;2.60;90.90;;;;;;5095018;28;20715;-84
2021/03/22 01:07:55;;;;;;;13.13;8.40;;;2.60;90.90;;;;;;5094536;28;20201;-83
2021/03/22 01:10:27;;;;;;;15.73;9.00;;;2.60;90.70;;;;;;5094434;28;20244;-83
2021/03/22 01:12:54;;;;;;;13.33;8.40;;;2.60;90.60;;;;;;5090903;28;20193;-83
2021/03/22 01:15:21;;;;;;;12.30;8.77;;;2.50;90.80;;;;;;5094791;28;20301;-80
2021/03/22 01:17:47;;;;;;;15.47;8.83;;;2.60;91.00;;;;;;5098923;28;20642;-86
2021/03/22 01:20:16;;;;;;;17.20;8.57;;;2.60;90.90;;;;;;5095398;28;20220;-81
2021/03/22 01:22:44;;;;;;;13.43;8.53;;;2.60;90.80;;;;;;5089410;28;20197;-81
2021/03/22 01:25:11;;;;;;;14.67;8.67;;;2.50;91.10;;;;;;5089525;28;20339;-82
2021/03/22 01:27:38;;;;;;;13.73;9.13;;;2.50;91.20;;;;;;5093574;28;20212;-82
2021/03/22 01:30:10;;;;;;;15.20;8.63;;;2.50;91.40;;;;;;5091333;28;20288;-84
2021/03/22 01:32:36;;;;;;;14.80;9.13;;;2.50;91.40;;;;;;5090785;28;20257;-81
2021/03/22 01:35:04;;;;;;;12.20;8.60;;;2.40;91.80;;;;;;5093818;28;20220;-82
2021/03/22 01:37:30;;;;;;;15.50;9.77;;;2.50;91.70;;;;;;5093528;28;20589;-84
2021/03/22 01:39:58;;;;;;;15.23;8.67;;;2.60;91.50;;;;;;5090519;28;20222;-81
2021/03/22 01:42:38;;;;;;;17.03;8.57;;;2.60;91.40;;;;;;5093169;28;20223;-86
2021/03/22 01:45:07;;;;;;;16.63;8.33;;;2.60;91.20;;;;;;5085172;28;20216;-83
2021/03/22 01:47:34;;;;;;;13.10;8.80;;;2.60;91.40;;;;;;5092724;28;20562;-85
2021/03/22 01:50:05;;;;;;;15.30;8.50;;;2.50;91.50;;;;;;5094900;28;20240;-80
2021/03/22 01:52:33;;;;;;;16.60;8.93;;;2.60;91.60;;;;;;5094776;28;20200;-82
2021/03/22 01:55:01;;;;;;;15.83;8.83;;;2.60;91.30;;;;;;5089250;28;20232;-82
2021/03/22 01:57:30;;;;;;;12.53;7.93;;;2.60;91.30;;;;;;5088805;28;20207;-80
2021/03/22 02:00:11;;;;;;;15.87;8.20;;;2.70;91.40;;;;;;5084412;28;20224;-81
2021/03/22 02:02:40;;;;;;;16.43;8.43;;;2.70;91.10;;;;;;5092337;28;20553;-82
2021/03/22 02:05:10;;;;;;;15.47;8.40;;;2.70;91.20;;;;;;5086268;28;20390;-81
2021/03/22 02:07:37;;;;;;;16.43;8.37;;;2.70;91.10;;;;;;5090728;28;20204;-84
2021/03/22 02:10:05;;;;;;;14.20;8.53;;;2.70;91.20;;;;;;5093362;28;20230;-83
2021/03/22 02:12:31;;;;;;;17.03;8.97;;;2.60;91.30;;;;;;5089550;28;20611;-82
2021/03/22 02:14:58;;;;;;;17.03;8.83;;;2.70;91.40;;;;;;5089679;28;20269;-82
2021/03/22 02:17:37;;;;;;;15.67;9.33;;;2.70;91.20;;;;;;5088393;28;20204;-84
2021/03/22 02:20:29;;;;;;;14.30;8.33;;;2.70;91.30;;;;;;5086609;28;20623;-83
2021/03/22 02:23:23;;;;;;;12.97;8.53;;;2.60;91.40;;;;;;5090075;28;20201;-82
2021/03/22 02:25:57;;;;;;;15.57;8.73;;;2.70;91.50;;;;;;5092503;28;20209;-82
2021/03/22 02:28:51;;;;;;;17.43;9.10;;;2.70;91.40;;;;;;5094343;28;20228;-81
2021/03/22 02:31:47;;;;;;;19.90;10.10;;;2.70;91.40;;;;;;5094751;28;20213;-82
2021/03/22 02:34:27;;;;;;;15.03;8.97;;;2.60;91.40;;;;;;5083262;28;20296;-82
2021/03/22 02:37:07;;;;;;;16.93;8.90;;;2.70;91.70;;;;;;5090118;28;20208;-82
2021/03/22 02:39:37;;;;;;;13.57;8.60;;;2.80;91.70;;;;;;5082421;28;20691;-82
2021/03/22 02:42:07;;;;;;;13.57;8.60;;;2.80;91.40;;;;;;5089954;28;20196;-82
2021/03/22 02:44:36;;;;;;;15.47;9.17;;;2.80;91.30;;;;;;5090726;28;20690;-82
2021/03/22 02:47:05;;;;;;;18.97;8.37;;;2.80;91.40;;;;;;5094443;28;20725;-81
2021/03/22 02:49:37;;;;;;;17.70;9.00;;;2.90;91.20;;;;;;5087811;28;20260;-84
2021/03/22 02:52:19;;;;;;;15.83;8.53;;;2.90;91.10;;;;;;5087258;28;20213;-84
2021/03/22 02:54:53;;;;;;;16.20;8.63;;;2.90;91.30;;;;;;5084364;28;20290;-82
2021/03/22 02:57:25;;;;;;;19.57;9.10;;;2.90;91.20;;;;;;5086090;28;20192;-82
2021/03/22 02:59:58;;;;;;;13.40;9.20;;;2.90;91.30;;;;;;5086931;28;20284;-85
2021/03/22 03:02:26;;;;;;;14.57;8.73;;;2.80;91.20;;;;;;5089003;28;20205;-85
2021/03/22 03:04:54;;;;;;;15.97;8.80;;;2.80;91.50;;;;;;5090542;28;20220;-82
2021/03/22 03:07:23;;;;;;;18.47;9.37;;;2.80;91.50;;;;;;5086479;28;20197;-83
2021/03/22 03:09:49;;;;;;;16.30;9.50;;;2.80;91.30;;;;;;5085343;28;20236;-81
2021/03/22 03:12:19;;;;;;;14.30;9.27;;;2.80;91.50;;;;;;5090633;28;20682;-81
2021/03/22 03:14:48;;;;;;;16.03;8.70;;;2.70;91.60;;;;;;5091247;28;20220;-82
2021/03/22 03:17:15;;;;;;;15.03;8.90;;;2.70;91.60;;;;;;5090996;28;20204;-84
2021/03/22 03:19:42;;;;;;;14.83;8.77;;;2.70;91.70;;;;;;5088544;28;20623;-82
2021/03/22 03:22:11;;;;;;;16.60;8.77;;;2.80;91.80;;;;;;5095649;28;20215;-83
2021/03/22 03:24:39;;;;;;;17.83;8.40;;;2.70;91.90;;;;;;5088418;28;20592;-84
2021/03/22 03:27:08;;;;;;;17.80;8.90;;;2.90;91.40;;;;;;5091312;28;20204;-81
2021/03/22 03:29:34;;;;;;;15.53;8.23;;;2.90;91.10;;;;;;5090974;28;20232;-81
2021/03/22 03:32:01;;;;;;;19.33;8.23;;;2.90;91.20;;;;;;5089959;28;20220;-82
2021/03/22 03:34:28;;;;;;;14.77;8.23;;;2.90;91.10;;;;;;5089754;28;20224;-81
2021/03/22 03:36:54;;;;;;;19.37;7.57;;;2.80;91.20;;;;;;5084076;28;20213;-83
2021/03/22 03:39:21;;;;;;;17.73;7.47;;;2.80;91.10;;;;;;5085883;28;20213;-87
2021/03/22 03:41:48;;;;;;;20.07;7.80;;;2.80;91.00;;;;;;5088747;28;20212;-82
2021/03/22 03:44:15;;;;;;;13.47;7.23;;;2.80;91.10;;;;;;5081400;28;20652;-81
2021/03/22 03:46:42;;;;;;;24.93;8.20;;;2.90;90.90;;;;;;5091964;28;20207;-81
2021/03/22 03:49:09;;;;;;;14.03;7.13;;;2.80;90.80;;;;;;5089689;28;20219;-82
2021/03/22 03:51:37;;;;;;;17.13;7.70;;;2.80;90.90;;;;;;5088485;28;20686;-84
2021/03/22 03:54:04;;;;;;;23.53;8.37;;;2.90;90.70;;;;;;5088944;28;20593;-81
2021/03/22 03:56:31;;;;;;;24.13;7.90;;;2.90;90.60;;;;;;5086431;28;20197;-83
2021/03/22 03:58:58;;;;;;;20.47;7.93;;;2.90;90.50;;;;;;5088518;28;20220;-81
2021/03/22 04:01:25;;;;;;;17.90;8.00;;;3.00;90.60;;;;;;5094439;28;20207;-83
2021/03/22 04:03:51;;;;;;;19.80;6.93;;;2.80;90.70;;;;;;5085810;28;20231;-86
2021/03/22 04:06:20;;;;;;;18.83;7.73;;;2.90;91.00;;;;;;5096847;28;20199;-83
2021/03/22 04:08:48;;;;;;;15.07;7.67;;;2.90;90.70;;;;;;5093204;28;20224;-88
2021/03/22 04:11:20;;;;;;;19.67;8.30;;;3.00;90.80;;;;;;5094819;28;20219;-83
2021/03/22 04:13:48;;;;;;;20.57;7.80;;;3.00;90.70;;;;;;5090749;28;20594;-83
2021/03/22 04:16:15;;;;;;;18.27;7.90;;;3.00;90.70;;;;;;5088379;28;20201;-85
2021/03/22 04:18:42;;;;;;;21.60;8.20;;;3.00;90.80;;;;;;5088756;28;20258;-85
2021/03/22 04:21:11;;;;;;;18.27;8.03;;;2.90;91.10;;;;;;5090023;28;20212;-83
2021/03/22 04:23:38;;;;;;;20.23;8.53;;;2.90;91.10;;;;;;5093706;28;20308;-85
2021/03/22 04:26:05;;;;;;;21.47;8.57;;;2.90;91.20;;;;;;5093833;28;20611;-86
2021/03/22 04:28:32;;;;;;;17.40;8.37;;;2.80;91.20;;;;;;5090067;28;20251;-82
2021/03/22 04:30:59;;;;;;;19.20;8.47;;;2.80;91.30;;;;;;5089209;28;20298;-84
2021/03/22 04:33:25;;;;;;;18.10;8.40;;;2.80;91.40;;;;;;5092026;28;20281;-84
2021/03/22 04:35:52;;;;;;;20.57;8.17;;;2.80;91.50;;;;;;5095294;28;20212;-82
2021/03/22 04:38:19;;;;;;;17.00;8.23;;;2.80;91.40;;;;;;5090060;28;20203;-82
2021/03/22 04:40:45;;;;;;;17.53;7.43;;;2.80;91.40;;;;;;5098072;28;20192;-82
2021/03/22 04:43:12;;;;;;;20.20;8.27;;;2.80;91.60;;;;;;5092794;28;20196;-82
2021/03/22 04:45:38;;;;;;;16.97;7.53;;;2.80;91.20;;;;;;5094303;28;20192;-83
2021/03/22 04:48:07;;;;;;;20.90;7.50;;;2.80;91.30;;;;;;5092349;28;20206;-83
2021/03/22 04:50:34;;;;;;;21.40;7.20;;;2.90;90.80;;;;;;5090964;28;20246;-83
2021/03/22 04:53:00;;;;;;;24.37;7.97;;;2.80;90.90;;;;;;5090886;28;20212;-85
2021/03/22 04:55:27;;;;;;;19.57;6.93;;;2.80;91.10;;;;;;5090451;28;20314;-85
2021/03/22 04:57:54;;;;;;;18.43;6.77;;;2.80;91.50;;;;;;5091763;28;20207;-85
2021/03/22 05:00:24;;;;;;;22.37;7.07;;;2.80;90.90;;;;;;5092020;28;20244;-85
2021/03/22 05:02:50;;;;;;;19.10;7.40;;;2.80;91.00;;;;;;5093309;28;20254;-84
2021/03/22 05:05:18;;;;;;;19.50;7.53;;;2.80;91.10;;;;;;5090057;28;20747;-83
2021/03/22 05:07:44;;;;;;;19.87;7.50;;;2.80;90.90;;;;;;5088701;28;20259;-83
2021/03/22 05:10:17;;;;;;;18.70;7.00;;;2.80;91.00;;;;;;5095248;28;20224;-83
2021/03/22 05:12:43;;;;;;;15.43;6.93;;;2.90;90.90;;;;;;5097789;28;20200;-85
2021/03/22 05:15:10;;;;;;;20.60;6.97;;;2.90;90.80;;;;;;5088394;28;20801;-83
2021/03/22 05:17:36;;;;;;;19.03;7.33;;;2.80;90.80;;;;;;5096572;28;20197;-83
2021/03/22 05:20:03;;;;;;;20.20;7.43;;;2.90;90.90;;;;;;5090266;28;20232;-83
2021/03/22 05:22:31;;;;;;;20.30;6.97;;;2.90;90.70;;;;;;5093562;28;20212;-85
2021/03/22 05:24:57;;;;;;;18.40;7.00;;;3.00;90.40;;;;;;5087605;28;20231;-82
2021/03/22 05:27:23;;;;;;;20.03;7.13;;;3.00;90.40;;;;;;5092515;28;20426;-83
2021/03/22 05:29:50;;;;;;;21.93;7.30;;;3.00;90.50;;;;;;5094336;28;20338;-86
2021/03/22 05:32:32;;;;;;;19.40;7.13;;;3.00;90.30;;;;;;5092463;28;20283;-85
2021/03/22 05:34:59;;;;;;;18.50;6.50;;;3.10;90.20;;;;;;5083503;28;20622;-82
2021/03/22 05:37:26;;;;;;;17.30;6.47;;;3.20;89.80;;;;;;5094860;28;20200;-82
2021/03/22 05:39:54;;;;;;;19.93;7.33;;;3.20;89.50;;;;;;5091752;28;20220;-83
2021/03/22 05:42:33;;;;;;;33.63;7.80;;;3.10;90.00;;;;;;5088072;28;20207;-84
2021/03/22 05:45:05;;;;;;;17.10;6.17;;;3.10;89.50;;;;;;5089326;28;20683;-83
2021/03/22 05:47:42;;;;;;;61.20;9.73;;;3.00;89.80;;;;;;5092515;28;20720;-85
2021/03/22 05:50:15;;;;;;;20.63;6.70;;;2.90;90.20;;;;;;5092903;28;20242;-84
2021/03/22 05:53:06;;;;;;;17.87;5.83;;;3.10;89.90;;;;;;5091631;28;20593;-84
2021/03/22 05:55:46;;;;;;;17.03;6.17;;;3.10;90.20;;;;;;5089299;28;20254;-84
2021/03/22 05:58:34;;;;;;;21.63;7.27;;;3.20;90.10;;;;;;5093414;28;20203;-83
2021/03/22 06:01:07;;;;;;;19.07;6.30;;;3.30;89.10;;;;;;5086655;28;20209;-82
2021/03/22 06:03:39;;;;;;;27.53;6.40;;;3.30;87.90;;;;;;5091679;28;20242;-86
2021/03/22 06:06:16;;;;;;;20.13;6.40;;;3.30;88.70;;;;;;5087709;28;20200;-89
2021/03/22 06:08:48;;;;;;;18.93;6.40;;;3.40;89.10;;;;;;5089739;28;20587;-83
2021/03/22 06:11:29;;;;;;;22.47;6.50;;;3.40;88.00;;;;;;5092695;28;20586;-82
2021/03/22 06:14:02;;;;;;;19.83;6.20;;;3.30;87.90;;;;;;5091624;28;20281;-82
2021/03/22 06:16:35;;;;;;;17.93;6.47;;;3.30;87.90;;;;;;5078285;28;20205;-82
2021/03/22 06:19:05;;;;;;;18.43;5.70;;;3.30;87.90;;;;;;5089907;28;20225;-82
2021/03/22 06:21:34;;;;;;;18.33;6.20;;;3.40;88.00;;;;;;5088632;28;20219;-82
2021/03/22 06:24:10;;;;;;;17.03;5.93;;;3.40;88.00;;;;;;5089141;28;20280;-84
2021/03/22 06:26:40;;;;;;;22.57;6.30;;;3.40;88.00;;;;;;5088702;28;20200;-85
2021/03/22 06:29:15;;;;;;;25.57;6.27;;;3.40;87.00;;;;;;5091598;28;20276;-83
2021/03/22 06:31:43;;;;;;;17.90;5.80;;;3.50;88.00;;;;;;5090125;28;20249;-85
2021/03/22 06:37:09;;;;;;;20.70;6.03;;;3.70;86.90;;;;;;5090344;28;20196;-82
2021/03/22 06:39:36;;;;;;;17.30;5.83;;;3.70;85.10;;;;;;5092837;28;20290;-83
2021/03/22 06:42:16;;;;;;;18.07;5.80;;;3.70;85.40;;;;;;5092837;28;20693;-84
2021/03/22 06:44:43;;;;;;;23.67;6.30;;;3.70;85.10;;;;;;5097541;28;20248;-84
2021/03/22 06:47:22;;;;;;;28.43;6.97;;;3.70;85.20;;;;;;5086285;28;20819;-87
2021/03/22 06:49:52;;;;;;;24.80;6.03;;;3.80;84.10;;;;;;5083663;28;20607;-87
2021/03/22 06:52:20;;;;;;;36.23;6.50;;;3.80;82.40;;;;;;5092837;28;20243;-83
2021/03/22 06:54:48;;;;;;;30.00;6.33;;;3.90;82.90;;;;;;5089446;28;20235;-83
2021/03/22 06:57:17;;;;;;;34.37;6.37;;;3.80;82.20;;;;;;5090872;28;20197;-85
2021/03/22 07:00:05;;;;;;;24.67;6.70;;;3.80;82.50;;;;;;5095908;28;20220;-85
2021/03/22 07:02:41;;;;;;;21.17;5.43;;;3.70;83.00;;;;;;5085735;28;20451;-86
2021/03/22 07:05:19;;;;;;;19.53;7.20;;;3.60;83.20;;;;;;5063369;28;20228;-87
2021/03/22 07:07:53;;;;;;;23.20;5.57;;;3.60;83.30;;;;;;5084947;28;20200;-85
2021/03/22 07:10:20;;;;;;;14.83;4.90;;;3.70;83.30;;;;;;5085726;28;20216;-84
2021/03/22 07:13:02;;;;;;;22.17;6.07;;;3.70;83.80;;;;;;5096460;28;20231;-85
2021/03/22 07:15:32;;;;;;;21.93;5.30;;;3.60;84.00;;;;;;5092971;28;20285;-83
2021/03/22 07:18:21;;;;;;;19.17;6.00;;;3.50;85.40;;;;;;5095044;28;20199;-84
2021/03/22 07:21:04;;;;;;;20.40;5.07;;;3.40;85.60;;;;;;5094055;28;20216;-84
2021/03/22 07:24:04;;;;;;;17.07;5.00;;;3.40;86.40;;;;;;5085650;28;20223;-84
2021/03/22 07:26:39;;;;;;;27.13;5.20;;;3.50;87.10;;;;;;5091797;28;20204;-86
2021/03/22 07:29:30;;;;;;;18.40;5.33;;;3.50;86.50;;;;;;5085496;28;20306;-84
2021/03/22 07:32:05;;;;;;;21.60;5.00;;;3.50;86.80;;;;;;5092868;28;20220;-83
2021/03/22 07:34:45;;;;;;;16.37;5.00;;;3.60;85.20;;;;;;5090239;28;20763;-86
2021/03/22 07:37:25;;;;;;;18.90;4.60;;;3.70;85.00;;;;;;5082426;28;20254;-86
2021/03/22 07:39:58;;;;;;;21.00;5.20;;;3.80;85.40;;;;;;5096236;28;20232;-84
2021/03/22 07:42:44;;;;;;;17.83;5.10;;;3.90;83.20;;;;;;5095147;28;20215;-85
2021/03/22 07:45:30;;;;;;;18.57;4.90;;;4.00;82.40;;;;;;5078392;28;20274;-83
2021/03/22 07:48:14;;;;;;;20.27;5.33;;;4.10;83.30;;;;;;5090312;28;20203;-86
2021/03/22 07:50:43;;;;;;;21.93;5.90;;;4.40;80.80;;;;;;5089475;28;20716;-85
2021/03/22 07:53:17;;;;;;;19.97;4.97;;;4.60;79.40;;;;;;5089575;28;20203;-85
2021/03/22 07:55:52;;;;;;;11.40;4.60;;;4.70;79.30;;;;;;5092069;28;20232;-84
2021/03/22 07:58:39;;;;;;;24.00;5.17;;;4.80;77.50;;;;;;5093735;28;20200;-81
2021/03/22 08:01:14;;;;;;;16.10;4.83;;;4.80;75.80;;;;;;5101378;28;20196;-84
2021/03/22 08:04:07;;;;;;;24.93;5.60;;;4.70;76.00;;;;;;5100861;28;20240;-84
2021/03/22 08:06:50;;;;;;;16.97;4.60;;;4.70;76.60;;;;;;5103334;28;20195;-82
2021/03/22 08:09:28;;;;;;;21.97;4.93;;;4.80;75.80;;;;;;5087477;28;20345;-82
2021/03/22 08:12:00;;;;;;;26.10;5.07;;;4.90;75.60;;;;;;5091418;28;20216;-80
2021/03/22 08:14:30;;;;;;;22.10;5.17;;;5.10;75.00;;;;;;5085818;28;20228;-84
2021/03/22 08:17:34;;;;;;;19.03;5.07;;;5.30;74.60;;;;;;5089573;28;20200;-83
2021/03/22 08:20:10;;;;;;;21.13;4.60;;;5.50;70.30;;;;;;5093841;28;20223;-82
2021/03/22 08:22:42;;;;;;;20.10;5.07;;;5.70;70.70;;;;;;5088774;28;20199;-82
2021/03/22 08:25:28;;;;;;;25.40;4.60;;;5.90;70.60;;;;;;5087302;28;20227;-85
2021/03/22 08:28:00;;;;;;;26.27;5.43;;;5.80;68.30;;;;;;5083366;28;20679;-82
2021/03/22 08:30:35;;;;;;;33.77;5.47;;;6.00;65.80;;;;;;5089324;28;20228;-85
2021/03/22 08:33:08;;;;;;;29.97;5.90;;;5.90;64.30;;;;;;5082175;28;20201;-89
2021/03/22 08:35:39;;;;;;;22.10;5.80;;;5.90;66.80;;;;;;5085143;28;20232;-87
2021/03/22 08:38:11;;;;;;;21.57;5.47;;;6.10;65.60;;;;;;5076313;28;20220;-86
2021/03/22 08:40:48;;;;;;;20.97;4.80;;;6.10;66.50;;;;;;5081062;28;20398;-87
2021/03/22 08:43:22;;;;;;;22.10;5.00;;;5.90;65.20;;;;;;5075103;28;20192;-85
2021/03/22 08:46:02;;;;;;;24.57;5.03;;;5.70;66.40;;;;;;5086742;28;20195;-85
2021/03/22 08:48:30;;;;;;;16.87;5.03;;;5.40;67.20;;;;;;5083239;28;20568;-83
2021/03/22 08:50:59;;;;;;;24.57;5.73;;;5.40;70.10;;;;;;5083519;28;20221;-82
2021/03/22 08:53:33;;;;;;;19.57;5.43;;;5.40;70.10;;;;;;5085528;28;20228;-84
2021/03/22 08:56:05;;;;;;;23.77;5.17;;;5.00;69.70;;;;;;5083885;28;20192;-86
2021/03/22 08:58:35;;;;;;;19.40;4.77;;;4.80;71.50;;;;;;5086091;28;20228;-86
2021/03/22 09:01:18;;;;;;;27.67;5.70;;;4.90;70.10;;;;;;5092841;28;20197;-81
2021/03/22 09:03:50;;;;;;;15.17;4.67;;;5.00;69.70;;;;;;5093221;28;20278;-81
2021/03/22 09:06:20;;;;;;;18.90;4.73;;;5.20;70.00;;;;;;5087383;28;20365;-84
2021/03/22 09:09:08;;;;;;;14.90;4.13;;;5.70;67.00;;;;;;5092312;28;20240;-85
2021/03/22 09:11:44;;;;;;;20.70;4.73;;;6.20;63.80;;;;;;5086195;28;20225;-84
2021/03/22 09:14:28;;;;;;;16.37;4.37;;;6.40;62.50;;;;;;5089632;27;20217;-84
2021/03/22 09:16:57;;;;;;;15.80;4.43;;;6.20;61.30;;;;;;5097640;28;20204;-85
2021/03/22 09:19:45;;;;;;;15.00;4.57;;;5.90;62.40;;;;;;5091794;28;20315;-85
2021/03/22 09:22:47;;;;;;;27.63;4.77;;;5.70;65.80;;;;;;5091155;28;20196;-80
2021/03/22 09:25:29;;;;;;;16.47;4.53;;;5.30;67.30;;;;;;5080257;28;20251;-84
2021/03/22 09:28:29;;;;;;;19.47;4.30;;;5.50;68.60;;;;;;5094310;28;20642;-84
2021/03/22 09:30:58;;;;;;;20.03;4.43;;;5.50;66.00;;;;;;5093147;28;20569;-84
2021/03/22 09:33:54;;;;;;;19.80;4.93;;;5.50;65.50;;;;;;5100065;28;20257;-81
2021/03/22 09:36:33;;;;;;;23.33;5.13;;;5.50;64.60;;;;;;5096560;28;20660;-80
2021/03/22 09:39:01;;;;;;;16.03;4.80;;;5.40;66.50;;;;;;5092401;28;20222;-80
2021/03/22 09:42:02;;;;;;;19.53;4.63;;;5.40;66.60;;;;;;5091511;28;20200;-80
2021/03/22 09:44:32;;;;;;;20.53;4.43;;;5.20;70.00;;;;;;5084809;28;20660;-79
2021/03/22 09:47:17;;;;;;;18.93;5.33;;;5.00;69.80;;;;;;5097490;28;20260;-85
2021/03/22 09:50:22;;;;;;;17.43;4.67;;;5.10;69.80;;;;;;5090699;28;20305;-79
2021/03/22 09:53:13;;;;;;;20.73;4.93;;;5.20;70.00;;;;;;5090948;28;20226;-88
2021/03/22 09:55:44;;;;;;;16.13;4.57;;;5.50;70.30;;;;;;5078365;28;20240;-81
2021/03/22 09:58:28;;;;;;;18.23;4.70;;;5.70;69.50;;;;;;5091882;28;20547;-81
2021/03/22 10:01:00;;;;;;;20.67;4.60;;;5.80;65.70;;;;;;5088850;28;20200;-81
2021/03/22 10:03:49;;;;;;;22.83;4.90;;;5.90;66.60;;;;;;5094254;28;20228;-81
2021/03/22 10:06:43;;;;;;;18.80;4.40;;;6.00;62.60;;;;;;5057589;28;20193;-81
2021/03/22 10:09:16;;;;;;;16.30;4.63;;;6.00;61.30;;;;;;5065287;28;20215;-82
2021/03/22 10:11:45;;;;;;;19.03;5.27;;;6.00;61.50;;;;;;5087475;28;20221;-80
2021/03/22 10:14:24;;;;;;;24.17;4.63;;;6.10;62.60;;;;;;5078975;28;20587;-83
2021/03/22 10:16:52;;;;;;;21.80;5.17;;;6.30;64.40;;;;;;5092143;28;20531;-82
2021/03/22 10:19:21;;;;;;;22.70;5.40;;;6.50;64.00;;;;;;5083419;28;20224;-85
2021/03/22 10:21:50;;;;;;;17.63;4.23;;;6.50;61.00;;;;;;5086170;28;20209;-84
2021/03/22 10:24:27;;;;;;;22.77;5.10;;;6.40;61.80;;;;;;5091910;28;20294;-82
2021/03/22 10:26:56;;;;;;;20.83;5.50;;;6.30;62.90;;;;;;5092499;28;20219;-86
2021/03/22 10:29:27;;;;;;;20.83;5.47;;;6.50;62.70;;;;;;5094484;28;20221;-85
2021/03/22 10:32:06;;;;;;;16.20;4.23;;;6.70;60.90;;;;;;5097340;28;20224;-84
2021/03/22 10:34:40;;;;;;;18.93;4.70;;;6.70;59.50;;;;;;5092625;28;20966;-87
2021/03/22 10:37:08;;;;;;;19.63;5.40;;;6.40;61.20;;;;;;5101596;28;20809;-85
2021/03/22 10:39:39;;;;;;;17.07;4.80;;;6.10;62.10;;;;;;5089616;28;20590;-87
2021/03/22 10:42:37;;;;;;;16.33;4.27;;;5.90;64.60;;;;;;5092386;28;20201;-85
2021/03/22 10:45:26;;;;;;;17.83;5.00;;;5.80;67.70;;;;;;5096783;28;20648;-82
2021/03/22 10:47:54;;;;;;;22.10;5.40;;;5.70;67.90;;;;;;5091499;28;20212;-81
2021/03/22 10:50:24;;;;;;;16.80;4.60;;;5.60;67.20;;;;;;5083196;28;20228;-84
2021/03/22 10:53:05;;;;;;;15.77;5.10;;;5.80;66.20;;;;;;5092319;28;20224;-81
2021/03/22 10:55:35;;;;;;;14.20;4.27;;;6.00;67.80;;;;;;5098125;28;20219;-83
2021/03/22 10:58:06;;;;;;;15.27;4.20;;;6.00;62.10;;;;;;5088969;28;20200;-81
2021/03/22 11:00:34;;;;;;;12.17;4.13;;;6.20;62.70;;;;;;5092201;28;20223;-85
2021/03/22 11:03:04;;;;;;;19.47;5.03;;;6.10;62.60;;;;;;5091278;28;20201;-78
2021/03/22 11:05:37;;;;;;;17.73;4.70;;;6.00;62.60;;;;;;5086909;28;20307;-83
2021/03/22 11:08:08;;;;;;;25.47;5.43;;;6.10;63.90;;;;;;5095475;28;20197;-81
2021/03/22 11:10:36;;;;;;;21.17;4.50;;;5.90;62.20;;;;;;5082729;28;20235;-79
2021/03/22 11:13:04;;;;;;;16.70;4.70;;;5.70;65.00;;;;;;5088423;28;20212;-81
2021/03/22 11:15:33;;;;;;;17.80;4.43;;;5.70;65.30;;;;;;5090203;28;20224;-82
2021/03/22 11:18:00;;;;;;;13.87;4.50;;;5.90;62.60;;;;;;5085326;28;20197;-85
2021/03/22 11:20:29;;;;;;;17.13;4.77;;;6.20;60.70;;;;;;5082370;28;20282;-82
2021/03/22 11:23:14;;;;;;;20.60;5.30;;;6.40;62.10;;;;;;5086111;28;20197;-83
2021/03/22 11:25:42;;;;;;;19.40;5.27;;;6.30;59.90;;;;;;5088503;28;20223;-87
2021/03/22 11:28:25;;;;;;;13.73;4.53;;;6.10;58.60;;;;;;5085768;28;20220;-85
2021/03/22 11:30:59;;;;;;;23.60;5.63;;;5.80;61.30;;;;;;5086510;28;20196;-88
2021/03/22 11:33:27;;;;;;;19.37;5.23;;;5.60;62.70;;;;;;5093887;28;20203;-86
2021/03/22 11:36:03;;;;;;;21.70;4.90;;;5.50;66.00;;;;;;5086458;28;20253;-84
2021/03/22 11:38:33;;;;;;;13.53;4.30;;;5.50;66.40;;;;;;5090520;28;20257;-90
2021/03/22 11:41:00;;;;;;;15.97;4.47;;;5.30;68.30;;;;;;5102121;28;20235;-82
2021/03/22 11:43:30;;;;;;;18.30;4.60;;;5.20;67.40;;;;;;5085365;28;20244;-84
2021/03/22 11:45:57;;;;;;;17.07;4.37;;;5.00;69.60;;;;;;5084408;28;20208;-82
2021/03/22 11:48:32;;;;;;;16.03;4.70;;;4.90;69.60;;;;;;5093839;28;20213;-84
2021/03/22 11:51:02;;;;;;;15.17;4.33;;;4.90;69.60;;;;;;5077876;28;20223;-80
2021/03/22 11:53:31;;;;;;;27.70;15.17;;;5.00;68.40;;;;;;5089083;28;20227;-82
2021/03/22 11:56:20;;;;;;;19.07;4.47;;;5.10;64.10;;;;;;5094975;28;20200;-86
2021/03/22 11:58:47;;;;;;;15.47;4.93;;;5.20;63.80;;;;;;5089771;28;20248;-84
2021/03/22 12:01:24;;;;;;;17.97;5.00;;;5.30;61.80;;;;;;5089591;28;20638;-86
2021/03/22 12:04:10;;;;;;;25.30;5.83;;;5.60;61.80;;;;;;5089043;28;20606;-82
2021/03/22 12:06:56;;;;;;;18.20;4.67;;;5.70;62.00;;;;;;5092042;28;20199;-83
2021/03/22 12:09:24;;;;;;;16.90;4.63;;;5.90;60.30;;;;;;5080588;28;20706;-83
2021/03/22 12:11:51;;;;;;;17.17;4.63;;;6.00;58.90;;;;;;5086209;28;20212;-82
2021/03/22 12:14:19;;;;;;;16.07;3.90;;;6.10;59.40;;;;;;5088535;28;20283;-82
2021/03/22 12:16:47;;;;;;;19.97;4.47;;;6.00;59.20;;;;;;5089713;28;20188;-82
2021/03/22 12:19:18;;;;;;;13.40;4.17;;;5.60;62.70;;;;;;5093006;28;20265;-83
2021/03/22 12:21:45;;;;;;;11.10;3.87;;;5.50;63.20;;;;;;5080909;28;20308;-83
2021/03/22 12:24:12;;;;;;;13.43;4.17;;;5.20;62.90;;;;;;5089113;28;20221;-81
2021/03/22 12:26:39;;;;;;;14.70;3.93;;;5.00;68.70;;;;;;5082067;28;20645;-85
2021/03/22 12:29:05;;;;;;;16.07;3.73;;;5.00;69.80;;;;;;5086613;28;20315;-80
2021/03/22 12:31:36;;;;;;;12.10;4.87;;;4.90;67.50;;;;;;5092047;28;20597;-84
2021/03/22 12:34:07;;;;;;;16.73;4.40;;;4.90;65.00;;;;;;5082875;28;20220;-81
2021/03/22 12:36:35;;;;;;;16.53;4.20;;;4.90;65.50;;;;;;5092070;28;20214;-83
2021/03/22 12:39:06;;;;;;;18.30;4.70;;;5.00;65.30;;;;;;5090017;28;20220;-83
2021/03/22 12:41:34;;;;;;;14.67;4.07;;;4.80;66.30;;;;;;5094434;28;20219;-83
2021/03/22 12:44:02;;;;;;;16.50;4.80;;;4.90;67.00;;;;;;5089556;28;20644;-82
2021/03/22 12:46:29;;;;;;;17.77;4.30;;;4.80;65.70;;;;;;5094320;28;20728;-82
2021/03/22 12:49:14;;;;;;;14.43;4.53;;;4.90;65.60;;;;;;5092316;28;20252;-83
2021/03/22 12:51:42;;;;;;;16.33;4.20;;;4.90;66.10;;;;;;5099717;28;20228;-85
2021/03/22 12:54:09;;;;;;;15.77;4.43;;;5.00;67.10;;;;;;5101263;27;20215;-86
2021/03/22 12:56:36;;;;;;;13.13;3.87;;;5.00;66.60;;;;;;5089467;28;20555;-83
2021/03/22 12:59:05;;;;;;;17.43;4.17;;;4.90;67.00;;;;;;5096536;28;20220;-86
2021/03/22 13:01:31;;;;;;;16.47;4.43;;;4.90;66.00;;;;;;5100435;28;20250;-82
2021/03/22 13:03:58;;;;;;;13.27;4.00;;;5.00;65.80;;;;;;5096319;28;20233;-81
2021/03/22 13:06:25;;;;;;;18.10;4.73;;;4.90;62.40;;;;;;5078711;28;20200;-87
2021/03/22 13:08:52;;;;;;;17.53;5.13;;;4.70;64.00;;;;;;5080320;28;20578;-84
2021/03/22 13:11:23;;;;;;;18.83;3.87;;;4.80;64.90;;;;;;5084598;28;20208;-86
2021/03/22 13:13:51;;;;;;;12.70;4.17;;;4.90;64.50;;;;;;5082446;28;20745;-80
2021/03/22 13:16:20;;;;;;;15.23;5.57;;;4.90;61.80;;;;;;5086564;28;20283;-88
2021/03/22 13:18:48;;;;;;;11.50;4.30;;;4.80;61.70;;;;;;5081210;28;20252;-81